Time;durP1;ratioP1;P1;durP2;ratioP2;P2;SDS_P1;SDS_P2;PMS_P1;PMS_P2;Temp;Humidity;BMP_temperature;BMP_pressure;BME280_temperature;BME280_humidity;BME280_pressure;Samples;Min_cycle;Max_cycle;Signal;HPM_P1;HPM_P2
2023/03/04 00:00:21;;;;;;;;;;;;;;;5.00;100.00;102587.63;5011337;28;19952;-79
2023/03/04 00:02:46;;;;;;;;;;;;;;;4.89;100.00;102585.25;5017041;28;19925;-80
2023/03/04 00:05:11;;;;;;;;;;;;;;;4.97;100.00;102591.22;4998162;28;20343;-80
2023/03/04 00:07:36;;;;;;;;;;;;;;;5.00;100.00;102584.97;4998332;28;20301;-80
2023/03/04 00:10:02;;;;;;;;;;;;;;;5.03;100.00;102591.06;5015067;28;20665;-80
2023/03/04 00:12:27;;;;;;;;;;;;;;;5.02;100.00;102584.00;5008709;28;19979;-79
2023/03/04 00:14:52;;;;;;;;;;;;;;;5.00;100.00;102582.31;5028961;28;21671;-80
2023/03/04 00:17:18;;;;;;;;;;;;;;;4.92;100.00;102590.47;4998235;28;20007;-79
2023/03/04 00:19:43;;;;;;;;;;;;;;;5.10;100.00;102581.13;5013583;28;20397;-79
2023/03/04 00:22:08;;;;;;;;;;;;;;;5.06;100.00;102580.34;5013321;28;20401;-79
2023/03/04 00:24:34;;;;;;;;;;;;;;;5.05;100.00;102583.03;5004388;28;19988;-80
2023/03/04 00:26:59;;;;;;;;;;;;;;;5.04;100.00;102573.28;5004878;28;19921;-79
2023/03/04 00:29:24;;;;;;;;;;;;;;;5.01;100.00;102576.06;5008288;28;20455;-79
2023/03/04 00:31:49;;;;;;;;;;;;;;;5.02;100.00;102583.13;5014158;28;20018;-79
2023/03/04 00:34:15;;;;;;;;;;;;;;;4.99;100.00;102570.75;5013619;28;20238;-79
2023/03/04 00:36:43;;;;;;;;;;;;;;;5.02;100.00;102581.34;4997778;28;20004;-79
2023/03/04 00:39:08;;;;;;;;;;;;;;;5.00;100.00;102571.66;5015272;28;20276;-79
2023/03/04 00:41:33;;;;;;;;;;;;;;;4.99;100.00;102570.75;5001963;28;19928;-79
2023/03/04 00:43:59;;;;;;;;;;;;;;;4.98;100.00;102569.00;5020296;28;20484;-80
2023/03/04 00:46:24;;;;;;;;;;;;;;;5.00;100.00;102569.00;5025062;28;19921;-79
2023/03/04 00:48:49;;;;;;;;;;;;;;;4.86;100.00;102574.69;5014374;28;20357;-80
2023/03/04 00:51:14;;;;;;;;;;;;;;;4.90;100.00;102569.22;4998902;28;20391;-79
2023/03/04 00:53:39;;;;;;;;;;;;;;;4.94;100.00;102576.22;5015433;28;20307;-80
2023/03/04 00:56:05;;;;;;;;;;;;;;;4.90;100.00;102571.88;4998508;28;20589;-79
2023/03/04 00:58:30;;;;;;;;;;;;;;;5.00;100.00;102574.31;5012547;28;20401;-79
2023/03/04 01:00:55;;;;;;;;;;;;;;;4.99;100.00;102576.09;4999926;28;19921;-80
2023/03/04 01:03:21;;;;;;;;;;;;;;;5.02;100.00;102576.00;4999388;28;19921;-79
2023/03/04 01:05:46;;;;;;;;;;;;;;;5.13;100.00;102575.72;5014931;28;19944;-79
2023/03/04 01:08:11;;;;;;;;;;;;;;;5.14;100.00;102576.59;5011463;28;20279;-79
2023/03/04 01:10:36;;;;;;;;;;;;;;;5.07;100.00;102578.53;5031153;28;20387;-79
2023/03/04 01:13:01;;;;;;;;;;;;;;;5.03;100.00;102579.56;4998880;28;20350;-78
2023/03/04 01:15:27;;;;;;;;;;;;;;;5.10;100.00;102574.03;5015754;28;20008;-79
2023/03/04 01:17:52;;;;;;;;;;;;;;;5.04;100.00;102571.53;5016414;28;19929;-80
2023/03/04 01:20:17;;;;;;;;;;;;;;;5.02;100.00;102576.00;4999487;28;19921;-80
2023/03/04 01:22:42;;;;;;;;;;;;;;;5.04;100.00;102578.63;5009211;28;19921;-79
2023/03/04 01:25:08;;;;;;;;;;;;;;;5.01;100.00;102574.25;5014301;28;20039;-80
2023/03/04 01:27:33;;;;;;;;;;;;;;;5.00;100.00;102576.97;5007782;28;19956;-80
2023/03/04 01:29:58;;;;;;;;;;;;;;;4.99;100.00;102570.75;5012674;28;20674;-80
2023/03/04 01:32:23;;;;;;;;;;;;;;;4.75;100.00;102573.16;5019628;28;20403;-79
2023/03/04 01:34:49;;;;;;;;;;;;;;;4.75;100.00;102564.31;5009149;28;20275;-80
2023/03/04 01:37:14;;;;;;;;;;;;;;;4.72;100.00;102567.91;5006941;28;20351;-80
2023/03/04 01:39:39;;;;;;;;;;;;;;;4.83;100.00;102570.28;5009065;28;20524;-79
2023/03/04 01:42:04;;;;;;;;;;;;;;;4.86;100.00;102564.88;5001089;28;20371;-80
2023/03/04 01:44:29;;;;;;;;;;;;;;;4.88;100.00;102557.72;5020069;28;19952;-79
2023/03/04 01:46:55;;;;;;;;;;;;;;;4.92;100.00;102554.09;4998205;28;19929;-80
2023/03/04 01:49:20;;;;;;;;;;;;;;;4.90;100.00;102552.38;5014345;28;19960;-79
2023/03/04 01:51:51;;;;;;;;;;;;;;;4.90;100.00;102553.25;5001491;28;19928;-79
2023/03/04 01:54:16;;;;;;;;;;;;;;;4.86;100.00;102546.25;5000800;28;20139;-78
2023/03/04 01:56:41;;;;;;;;;;;;;;;4.95;100.00;102548.69;5015173;28;19924;-80
2023/03/04 01:59:11;;;;;;;;;;;;;;;4.97;100.00;102537.13;4994075;28;19925;-79
2023/03/04 02:01:37;;;;;;;;;;;;;;;4.96;100.00;102536.22;5011570;28;19962;-79
2023/03/04 02:04:02;;;;;;;;;;;;;;;5.00;100.00;102534.38;5001237;28;19920;-79
2023/03/04 02:06:27;;;;;;;;;;;;;;;4.92;100.00;102531.91;5015908;28;19936;-79
2023/03/04 02:08:52;;;;;;;;;;;;;;;4.98;100.00;102523.75;4990489;28;19924;-79
2023/03/04 02:11:18;;;;;;;;;;;;;;;5.00;100.00;102523.72;5015868;28;19925;-79
2023/03/04 02:13:43;;;;;;;;;;;;;;;4.96;100.00;102528.25;5000231;28;19929;-79
2023/03/04 02:16:08;;;;;;;;;;;;;;;4.86;100.00;102524.97;5000263;28;19920;-79
2023/03/04 02:18:33;;;;;;;;;;;;;;;4.92;100.00;102522.13;4994588;28;19940;-79
2023/03/04 02:21:10;;;;;;;;;;;;;;;4.91;100.00;102520.41;5013924;28;19971;-79
2023/03/04 02:23:44;;;;;;;;;;;;;;;5.00;100.00;102524.59;5001622;28;19956;-79
2023/03/04 02:26:09;;;;;;;;;;;;;;;5.00;100.00;102526.41;5002644;28;19925;-79
2023/03/04 02:28:34;;;;;;;;;;;;;;;4.94;100.00;102522.97;5015407;28;20020;-79
2023/03/04 02:30:59;;;;;;;;;;;;;;;4.93;100.00;102518.56;4998876;28;19940;-79
2023/03/04 02:33:25;;;;;;;;;;;;;;;4.93;100.00;102515.00;5003006;28;20307;-79
2023/03/04 02:35:50;;;;;;;;;;;;;;;4.79;100.00;102515.38;4998669;28;20291;-79
2023/03/04 02:38:15;;;;;;;;;;;;;;;4.82;100.00;102509.97;5000710;28;20355;-79
2023/03/04 02:40:41;;;;;;;;;;;;;;;4.80;100.00;102515.38;5015683;28;20355;-78
2023/03/04 02:43:08;;;;;;;;;;;;;;;4.79;100.00;102510.06;5016840;28;20631;-79
2023/03/04 02:45:38;;;;;;;;;;;;;;;4.92;100.00;102507.94;5017134;28;19920;-79
2023/03/04 02:48:03;;;;;;;;;;;;;;;4.82;100.00;102507.31;5000857;28;20011;-79
2023/03/04 02:50:29;;;;;;;;;;;;;;;4.75;100.00;102508.44;5013873;28;19925;-79
2023/03/04 02:52:54;;;;;;;;;;;;;;;4.93;100.00;102505.25;5012303;28;19925;-79
2023/03/04 02:55:19;;;;;;;;;;;;;;;5.00;100.00;102505.09;5014462;28;19999;-79
2023/03/04 02:57:45;;;;;;;;;;;;;;;4.92;100.00;102503.50;5018573;28;19940;-80
2023/03/04 03:00:10;;;;;;;;;;;;;;;4.86;100.00;102505.47;5002946;28;19976;-79
2023/03/04 03:02:36;;;;;;;;;;;;;;;4.84;100.00;102491.34;4999129;28;20020;-78
2023/03/04 03:05:01;;;;;;;;;;;;;;;5.02;100.00;102500.59;5011763;28;19921;-79
2023/03/04 03:07:26;;;;;;;;;;;;;;;4.93;100.00;102507.03;5016236;28;19925;-79
2023/03/04 03:09:51;;;;;;;;;;;;;;;4.97;100.00;102498.06;5014423;28;19921;-79
2023/03/04 03:12:16;;;;;;;;;;;;;;;4.88;100.00;102496.53;5013601;28;19932;-79
2023/03/04 03:14:42;;;;;;;;;;;;;;;4.87;100.00;102491.25;4997853;28;19928;-79
2023/03/04 03:17:09;;;;;;;;;;;;;;;4.71;100.00;102485.47;5006605;28;19929;-79
2023/03/04 03:19:34;;;;;;;;;;;;;;;4.86;100.00;102482.38;5008341;28;20467;-78
2023/03/04 03:21:59;;;;;;;;;;;;;;;4.90;100.00;102480.53;5013547;28;19921;-80
2023/03/04 03:24:24;;;;;;;;;;;;;;;4.89;100.00;102478.78;5001289;28;19922;-79
2023/03/04 03:26:50;;;;;;;;;;;;;;;4.91;100.00;102476.91;5023485;28;19960;-79
2023/03/04 03:29:15;;;;;;;;;;;;;;;4.86;100.00;102484.19;5006224;28;19929;-79
2023/03/04 03:31:40;;;;;;;;;;;;;;;4.85;100.00;102474.44;5021053;28;19920;-80
2023/03/04 03:34:05;;;;;;;;;;;;;;;4.85;100.00;102479.78;5004286;28;19926;-79
2023/03/04 03:36:31;;;;;;;;;;;;;;;4.78;100.00;102474.59;5005346;28;19917;-79
2023/03/04 03:38:56;;;;;;;;;;;;;;;4.88;100.00;102477.88;5006187;28;19921;-79
2023/03/04 03:41:21;;;;;;;;;;;;;;;4.87;100.00;102475.28;5031748;28;20271;-79
2023/03/04 03:43:46;;;;;;;;;;;;;;;4.87;100.00;102480.59;5015067;28;20422;-79
2023/03/04 03:46:11;;;;;;;;;;;;;;;4.86;100.00;102478.84;5017910;28;20476;-79
2023/03/04 03:48:37;;;;;;;;;;;;;;;4.82;100.00;102479.84;5019204;28;19982;-79
2023/03/04 03:51:02;;;;;;;;;;;;;;;4.78;100.00;102471.06;5030463;28;19925;-79
2023/03/04 03:53:27;;;;;;;;;;;;;;;4.82;100.00;102475.38;5010038;28;20394;-80
2023/03/04 03:55:52;;;;;;;;;;;;;;;4.79;100.00;102471.03;5028590;28;19928;-79
2023/03/04 03:58:18;;;;;;;;;;;;;;;4.77;100.00;102478.19;5008826;28;20060;-79
2023/03/04 04:00:44;;;;;;;;;;;;;;;4.78;100.00;102474.59;5033308;28;19922;-80
2023/03/04 04:03:10;;;;;;;;;;;;;;;4.73;100.00;102479.19;5001717;28;20650;-80
2023/03/04 04:05:35;;;;;;;;;;;;;;;4.76;100.00;102475.56;5003552;28;19921;-80
2023/03/04 04:08:00;;;;;;;;;;;;;;;4.84;100.00;102470.03;4999120;28;20716;-80
2023/03/04 04:10:26;;;;;;;;;;;;;;;4.80;100.00;102475.44;5000172;28;21627;-79
2023/03/04 04:12:51;;;;;;;;;;;;;;;4.82;100.00;102466.53;5017572;28;20318;-80
2023/03/04 04:15:16;;;;;;;;;;;;;;;4.87;100.00;102470.81;5017271;28;19979;-79
2023/03/04 04:17:41;;;;;;;;;;;;;;;4.86;100.00;102470.88;4998958;28;20002;-79
2023/03/04 04:20:09;;;;;;;;;;;;;;;4.71;100.00;102481.00;4997043;28;20006;-79
2023/03/04 04:22:34;;;;;;;;;;;;;;;4.80;100.00;102479.88;4999238;28;19933;-79
2023/03/04 04:24:59;;;;;;;;;;;;;;;4.80;100.00;102477.22;5009057;28;19921;-79
2023/03/04 04:27:24;;;;;;;;;;;;;;;4.75;100.00;102481.81;5007173;28;19972;-79
2023/03/04 04:29:50;;;;;;;;;;;;;;;4.78;100.00;102477.28;5023769;28;20035;-79
2023/03/04 04:32:15;;;;;;;;;;;;;;;4.68;100.00;102481.09;5007706;28;19921;-78
2023/03/04 04:34:40;;;;;;;;;;;;;;;4.76;100.00;102483.56;5028412;28;19921;-79
2023/03/04 04:37:05;;;;;;;;;;;;;;;4.59;100.00;102486.66;5023397;28;20335;-79
2023/03/04 04:39:31;;;;;;;;;;;;;;;4.51;100.00;102486.84;5016098;28;19931;-79
2023/03/04 04:41:56;;;;;;;;;;;;;;;4.50;100.00;102485.13;4998123;28;20312;-79
2023/03/04 04:44:21;;;;;;;;;;;;;;;4.56;100.00;102481.41;5002605;28;20354;-80
2023/03/04 04:46:46;;;;;;;;;;;;;;;4.64;100.00;102482.06;5033189;28;20435;-79
2023/03/04 04:49:11;;;;;;;;;;;;;;;4.61;100.00;102484.84;5019129;28;19992;-79
2023/03/04 04:51:37;;;;;;;;;;;;;;;4.61;100.00;102479.53;5018966;28;20008;-79
2023/03/04 04:54:02;;;;;;;;;;;;;;;4.70;100.00;102486.38;5017452;28;20322;-79
2023/03/04 04:56:28;;;;;;;;;;;;;;;4.68;100.00;102488.22;5003738;28;19994;-79
2023/03/04 04:58:54;;;;;;;;;;;;;;;4.72;100.00;102488.06;5001593;28;20270;-78
2023/03/04 05:01:19;;;;;;;;;;;;;;;4.72;100.00;102485.41;4998430;28;19921;-79
2023/03/04 05:03:44;;;;;;;;;;;;;;;4.70;100.00;102489.03;5002041;28;19999;-79
2023/03/04 05:06:10;;;;;;;;;;;;;;;4.82;100.00;102494.00;4998013;28;19921;-80
2023/03/04 05:08:35;;;;;;;;;;;;;;;4.81;100.00;102486.94;5015883;28;19920;-79
2023/03/04 05:11:01;;;;;;;;;;;;;;;4.73;100.00;102489.81;5001181;28;19964;-79
2023/03/04 05:13:26;;;;;;;;;;;;;;;4.68;100.00;102490.88;5018209;28;19932;-79
2023/03/04 05:15:52;;;;;;;;;;;;;;;4.60;100.00;102489.28;5021365;28;20301;-79
2023/03/04 05:18:18;;;;;;;;;;;;;;;4.65;100.00;102483.81;5009062;28;19952;-79
2023/03/04 05:20:43;;;;;;;;;;;;;;;4.63;100.00;102491.84;5017911;28;19968;-79
2023/03/04 05:23:08;;;;;;;;;;;;;;;4.62;100.00;102484.78;4998206;28;19933;-79
2023/03/04 05:25:33;;;;;;;;;;;;;;;4.64;100.00;102484.72;4998062;28;19971;-79
2023/03/04 05:28:00;;;;;;;;;;;;;;;4.68;100.00;102491.72;5001657;28;20008;-79
2023/03/04 05:30:26;;;;;;;;;;;;;;;4.73;100.00;102488.97;5016402;28;19921;-79
2023/03/04 05:32:51;;;;;;;;;;;;;;;4.56;100.00;102489.41;5021755;28;20558;-78
2023/03/04 05:35:16;;;;;;;;;;;;;;;4.69;100.00;102493.47;5001994;28;19998;-79
2023/03/04 05:37:41;;;;;;;;;;;;;;;4.47;100.00;102495.84;5019798;28;19924;-78
2023/03/04 05:40:08;;;;;;;;;;;;;;;4.54;100.00;102483.25;5018143;28;19925;-79
2023/03/04 05:42:33;;;;;;;;;;;;;;;4.63;100.00;102480.34;5019844;28;20011;-79
2023/03/04 05:44:58;;;;;;;;;;;;;;;4.63;100.00;102483.88;5021058;28;20008;-79
2023/03/04 05:47:23;;;;;;;;;;;;;;;4.44;100.00;102493.25;5002194;28;19928;-78
2023/03/04 05:49:48;;;;;;;;;;;;;;;4.55;100.00;102487.66;5019942;28;19921;-79
2023/03/04 05:52:14;;;;;;;;;;;;;;;4.62;100.00;102490.09;5011257;28;19925;-79
2023/03/04 05:54:39;;;;;;;;;;;;;;;4.62;100.00;102487.44;5017097;28;19944;-79
2023/03/04 05:57:04;;;;;;;;;;;;;;;4.64;100.00;102496.25;5008061;28;19921;-79
2023/03/04 05:59:29;;;;;;;;;;;;;;;4.59;100.00;102492.84;5016414;28;19931;-79
2023/03/04 06:01:54;;;;;;;;;;;;;;;4.55;100.00;102496.50;5016856;28;19921;-78
2023/03/04 06:04:20;;;;;;;;;;;;;;;4.52;100.00;102493.91;5009381;28;19963;-79
2023/03/04 06:06:46;;;;;;;;;;;;;;;4.60;100.00;102499.91;4996942;28;19921;-79
2023/03/04 06:09:11;;;;;;;;;;;;;;;4.50;100.00;102499.28;5000524;28;19972;-78
2023/03/04 06:11:36;;;;;;;;;;;;;;;4.48;100.00;102497.59;5006015;28;19917;-78
2023/03/04 06:14:02;;;;;;;;;;;;;;;4.39;100.00;102498.66;5016258;28;19925;-78
2023/03/04 06:16:27;;;;;;;;;;;;;;;4.51;100.00;102502.81;5001872;28;19917;-78
2023/03/04 06:18:52;;;;;;;;;;;;;;;4.44;100.00;102501.22;5020041;28;19921;-81
2023/03/04 06:21:17;;;;;;;;;;;;;;;4.34;100.00;102505.91;4995546;28;20383;-78
2023/03/04 06:23:44;;;;;;;;;;;;;;;4.27;100.00;102501.66;5017920;28;20279;-78
2023/03/04 06:26:14;;;;;;;;;;;;;;;4.37;100.00;102507.59;5011243;28;20742;-78
2023/03/04 06:28:39;;;;;;;;;;;;;;;4.34;100.00;102508.56;5012538;28;20382;-79
2023/03/04 06:31:04;;;;;;;;;;;;;;;4.37;100.00;102508.47;5001064;28;19925;-78
2023/03/04 06:33:29;;;;;;;;;;;;;;;4.38;100.00;102504.03;5014321;28;19976;-79
2023/03/04 06:35:55;;;;;;;;;;;;;;;4.41;100.00;102511.94;5015078;28;20066;-79
2023/03/04 06:38:20;;;;;;;;;;;;;;;4.45;100.00;102514.47;5013554;28;20342;-80
2023/03/04 06:40:46;;;;;;;;;;;;;;;4.50;100.00;102511.72;5014943;28;19921;-79
2023/03/04 06:43:11;;;;;;;;;;;;;;;4.36;100.00;102506.75;5003811;28;20391;-79
2023/03/04 06:45:37;;;;;;;;;;;;;;;4.38;100.00;102514.69;5000427;28;20406;-78
2023/03/04 06:48:02;;;;;;;;;;;;;;;4.31;100.00;102512.16;5020362;28;20412;-79
2023/03/04 06:50:27;;;;;;;;;;;;;;;4.37;100.00;102513.78;5018903;28;19978;-78
2023/03/04 06:52:54;;;;;;;;;;;;;;;4.35;100.00;102516.50;5023582;28;20444;-78
2023/03/04 06:55:20;;;;;;;;;;;;;;;4.42;100.00;102513.69;5012193;28;19967;-79
2023/03/04 06:57:45;;;;;;;;;;;;;;;4.49;100.00;102509.97;5016812;28;19925;-78
2023/03/04 07:00:10;;;;;;;;;;;;;;;4.34;100.00;102521.88;5017171;28;19925;-78
2023/03/04 07:02:36;;;;;;;;;;;;;;;4.33;100.00;102512.16;5018857;28;19921;-78
2023/03/04 07:05:01;;;;;;;;;;;;;;;4.42;100.00;102516.34;5002620;28;20439;-78
2023/03/04 07:07:26;;;;;;;;;;;;;;;4.34;100.00;102519.22;5019382;28;19921;-78
2023/03/04 07:09:51;;;;;;;;;;;;;;;4.34;100.00;102511.22;5005442;28;19959;-78
2023/03/04 07:12:16;;;;;;;;;;;;;;;4.29;100.00;102513.97;4999273;28;19973;-79
2023/03/04 07:14:42;;;;;;;;;;;;;;;4.29;100.00;102516.66;5018245;28;20043;-78
2023/03/04 07:17:07;;;;;;;;;;;;;;;4.33;100.00;102517.47;5001992;28;20031;-78
2023/03/04 07:19:32;;;;;;;;;;;;;;;4.38;100.00;102517.34;5000400;28;19975;-78
2023/03/04 07:21:57;;;;;;;;;;;;;;;4.41;100.00;102526.09;5031080;28;19921;-79
2023/03/04 07:24:23;;;;;;;;;;;;;;;4.38;100.00;102520.84;5004144;28;20375;-78
2023/03/04 07:26:48;;;;;;;;;;;;;;;4.40;100.00;102521.69;5023128;28;20398;-79
2023/03/04 07:29:13;;;;;;;;;;;;;;;4.43;100.00;102526.94;5022391;28;20532;-79
2023/03/04 07:31:38;;;;;;;;;;;;;;;4.50;100.00;102523.22;5005579;28;19932;-78
2023/03/04 07:34:04;;;;;;;;;;;;;;;4.46;100.00;102532.19;5003662;28;20355;-79
2023/03/04 07:36:30;;;;;;;;;;;;;;;4.51;100.00;102537.38;5018290;28;19925;-78
2023/03/04 07:38:55;;;;;;;;;;;;;;;4.58;100.00;102535.47;4996017;28;19928;-79
2023/03/04 07:41:21;;;;;;;;;;;;;;;4.57;100.00;102539.03;4994295;28;19925;-79
2023/03/04 07:43:46;;;;;;;;;;;;;;;4.63;100.00;102537.09;5001460;28;19941;-78
2023/03/04 07:46:11;;;;;;;;;;;;;;;4.65;100.00;102537.94;5015044;28;19929;-79
2023/03/04 07:48:36;;;;;;;;;;;;;;;4.67;100.00;102545.84;5014436;28;19925;-78
2023/03/04 07:51:03;;;;;;;;;;;;;;;4.66;100.00;102541.44;5013134;28;19921;-79
2023/03/04 07:53:28;;;;;;;;;;;;;;;4.77;100.00;102542.06;5012550;28;19972;-78
2023/03/04 07:55:54;;;;;;;;;;;;;;;4.78;100.00;102550.91;4998954;28;20805;-79
2023/03/04 07:58:19;;;;;;;;;;;;;;;4.89;100.00;102551.50;5013999;28;20045;-79
2023/03/04 08:00:44;;;;;;;;;;;;;;;5.17;100.00;102550.75;4996717;28;20290;-77
2023/03/04 08:03:09;;;;;;;;;;;;;;;5.32;100.00;102554.78;4998876;28;20362;-79
2023/03/04 08:05:34;;;;;;;;;;;;;;;5.49;100.00;102558.75;4998508;28;19960;-79
2023/03/04 08:08:00;;;;;;;;;;;;;;;5.45;100.00;102557.97;4999430;28;20431;-80
2023/03/04 08:10:25;;;;;;;;;;;;;;;5.65;100.00;102561.84;5013296;28;19928;-78
2023/03/04 08:12:50;;;;;;;;;;;;;;;5.43;100.00;102561.59;5017127;28;19932;-80
2023/03/04 08:15:15;;;;;;;;;;;;;;;5.28;100.00;102560.25;5000853;28;19921;-79
2023/03/04 08:17:40;;;;;;;;;;;;;;;5.23;100.00;102558.59;5018048;28;19921;-77
2023/03/04 08:20:06;;;;;;;;;;;;;;;5.32;100.00;102557.44;5013637;28;19964;-78
2023/03/04 08:22:31;;;;;;;;;;;;;;;5.55;100.00;102559.47;5016352;28;19928;-79
2023/03/04 08:24:56;;;;;;;;;;;;;;;5.53;100.00;102560.41;5019517;28;20187;-77
2023/03/04 08:27:22;;;;;;;;;;;;;;;5.80;100.00;102558.75;5014326;28;19932;-80
2023/03/04 08:29:47;;;;;;;;;;;;;;;5.91;100.00;102558.41;5016824;28;19975;-78
2023/03/04 08:32:12;;;;;;;;;;;;;;;6.21;100.00;102561.06;5002432;28;20220;-80
2023/03/04 08:34:37;;;;;;;;;;;;;;;6.24;100.00;102560.94;5013790;28;19991;-77
2023/03/04 08:37:03;;;;;;;;;;;;;;;6.28;100.00;102561.75;5015585;28;19925;-79
2023/03/04 08:39:28;;;;;;;;;;;;;;;6.27;100.00;102566.19;5016057;28;19960;-78
2023/03/04 08:41:53;;;;;;;;;;;;;;;6.25;100.00;102560.03;5002668;28;20020;-78
2023/03/04 08:44:18;;;;;;;;;;;;;;;6.27;100.00;102565.34;5019773;28;19925;-80
2023/03/04 08:46:44;;;;;;;;;;;;;;;6.45;100.00;102555.88;4997557;28;20173;-80
2023/03/04 08:49:13;;;;;;;;;;;;;;;6.46;100.00;102562.94;5014885;28;19955;-78
2023/03/04 08:51:38;;;;;;;;;;;;;;;6.54;100.00;102552.00;5012318;28;19925;-77
2023/03/04 08:54:04;;;;;;;;;;;;;;;6.40;100.00;102556.00;5016531;28;19925;-79
2023/03/04 08:56:29;;;;;;;;;;;;;;;6.35;100.00;102559.75;5016127;28;20051;-78
2023/03/04 08:58:54;;;;;;;;;;;;;;;6.47;100.00;102554.03;4995769;28;19921;-79
2023/03/04 09:01:19;;;;;;;;;;;;;;;6.82;100.00;102557.28;4997532;28;19932;-80
2023/03/04 09:03:44;;;;;;;;;;;;;;;7.20;100.00;102554.19;5013019;28;19967;-78
2023/03/04 09:06:11;;;;;;;;;;;;;;;7.33;100.00;102555.50;5008913;28;20020;-80
2023/03/04 09:08:36;;;;;;;;;;;;;;;7.32;100.00;102563.53;5001659;28;19964;-79
2023/03/04 09:11:02;;;;;;;;;;;;;;;6.82;100.00;102559.09;4994834;28;20258;-78
2023/03/04 09:13:28;;;;;;;;;;;;;;;6.88;100.00;102545.53;5020939;28;19924;-80
2023/03/04 09:15:53;;;;;;;;;;;;;;;7.28;100.00;102548.59;5013199;28;19925;-79
2023/03/04 09:18:19;;;;;;;;;;;;;;;7.64;100.00;102548.13;5001412;28;20388;-82
2023/03/04 09:20:45;;;;;;;;;;;;;;;7.57;100.00;102543.91;4997422;28;19988;-80
2023/03/04 09:23:10;;;;;;;;;;;;;;;7.84;100.00;102538.44;4992179;28;20371;-81
2023/03/04 09:25:36;;;;;;;;;;;;;;;7.81;100.00;102534.09;5010201;28;19947;-82
2023/03/04 09:28:01;;;;;;;;;;;;;;;7.95;100.00;102529.06;5014122;28;19964;-81
2023/03/04 09:30:26;;;;;;;;;;;;;;;8.26;100.00;102532.31;4998180;28;19927;-81
2023/03/04 09:32:51;;;;;;;;;;;;;;;8.29;100.00;102531.31;5000723;28;19968;-81
2023/03/04 09:35:16;;;;;;;;;;;;;;;8.33;100.00;102520.44;5014503;28;20002;-81
2023/03/04 09:37:42;;;;;;;;;;;;;;;8.48;100.00;102521.59;4993604;28;19932;-81
2023/03/04 09:40:08;;;;;;;;;;;;;;;8.87;100.00;102521.78;5011433;28;19921;-81
2023/03/04 09:42:37;;;;;;;;;;;;;;;9.06;99.54;102532.56;5015248;28;19943;-81
2023/03/04 09:45:03;;;;;;;;;;;;;;;8.80;98.92;102523.88;5016613;28;19925;-81
2023/03/04 09:47:28;;;;;;;;;;;;;;;8.38;99.57;102522.91;5001569;28;20321;-80
2023/03/04 09:49:56;;;;;;;;;;;;;;;8.00;100.00;102530.69;5010531;28;20665;-81
2023/03/04 09:52:44;;;;;;;;;;;;;;;7.66;100.00;102532.88;5011935;28;20012;-79
2023/03/04 09:55:13;;;;;;;;;;;;;;;7.50;100.00;102540.63;5007908;28;19920;-80
2023/03/04 09:57:41;;;;;;;;;;;;;;;7.20;100.00;102535.47;5015925;28;20485;-80
2023/03/04 10:00:21;;;;;;;;;;;;;;;6.99;100.00;102526.47;5015477;28;20347;-82
2023/03/04 10:03:15;;;;;;;;;;;;;;;6.83;100.00;102524.31;5014479;28;19917;-82
2023/03/04 10:05:53;;;;;;;;;;;;;;;6.78;100.00;102533.41;4999869;28;19928;-80
2023/03/04 10:08:18;;;;;;;;;;;;;;;6.74;100.00;102538.84;5014378;28;20379;-79
2023/03/04 10:10:43;;;;;;;;;;;;;;;7.08;100.00;102533.25;5017851;28;19947;-80
2023/03/04 10:13:13;;;;;;;;;;;;;;;6.84;100.00;102528.72;5026345;28;20009;-79
2023/03/04 10:15:39;;;;;;;;;;;;;;;7.12;100.00;102530.41;5003352;28;19960;-81
2023/03/04 10:18:27;;;;;;;;;;;;;;;7.30;100.00;102534.22;5016650;28;19959;-80
2023/03/04 10:21:15;;;;;;;;;;;;;;;7.34;100.00;102529.63;5021453;28;20275;-79
2023/03/04 10:23:41;;;;;;;;;;;;;;;7.71;100.00;102498.84;5020856;28;19928;-80
2023/03/04 10:26:11;;;;;;;;;;;;;;;7.43;100.00;102520.38;5019629;28;19922;-80
2023/03/04 10:28:36;;;;;;;;;;;;;;;7.20;100.00;102522.13;4999154;28;19921;-80
2023/03/04 10:31:03;;;;;;;;;;;;;;;7.42;100.00;102526.66;5014361;28;20405;-80
2023/03/04 10:33:30;;;;;;;;;;;;;;;7.36;100.00;102533.13;5020571;28;19929;-80
2023/03/04 10:36:07;;;;;;;;;;;;;;;7.30;100.00;102531.56;5005753;28;20131;-80
2023/03/04 10:38:36;;;;;;;;;;;;;;;7.65;100.00;102525.78;5024425;28;19961;-79
2023/03/04 10:41:10;;;;;;;;;;;;;;;7.37;100.00;102529.50;5022764;28;19917;-80
2023/03/04 10:43:35;;;;;;;;;;;;;;;7.87;100.00;102524.97;5018274;28;19932;-80
2023/03/04 10:46:02;;;;;;;;;;;;;;;7.94;100.00;102515.75;5014111;28;19917;-80
2023/03/04 10:48:28;;;;;;;;;;;;;;;8.11;100.00;102517.78;5008513;28;20102;-80
2023/03/04 10:50:54;;;;;;;;;;;;;;;8.18;100.00;102502.31;5008917;28;20352;-79
2023/03/04 10:53:24;;;;;;;;;;;;;;;8.08;100.00;102509.88;4999939;28;19980;-80
2023/03/04 10:55:49;;;;;;;;;;;;;;;7.89;100.00;102504.38;5005090;28;19961;-80
2023/03/04 10:58:17;;;;;;;;;;;;;;;8.11;100.00;102486.53;5005284;28;20343;-80
2023/03/04 11:00:42;;;;;;;;;;;;;;;8.18;100.00;102492.50;5024126;28;19967;-81
2023/03/04 11:03:20;;;;;;;;;;;;;;;8.21;100.00;102483.47;5019237;28;20294;-80
2023/03/04 11:05:45;;;;;;;;;;;;;;;8.09;100.00;102488.38;5022429;28;19921;-80
2023/03/04 11:08:18;;;;;;;;;;;;;;;8.23;100.00;102489.63;5005622;28;19923;-81
2023/03/04 11:10:43;;;;;;;;;;;;;;;8.04;100.00;102490.41;4999507;28;19921;-79
2023/03/04 11:13:12;;;;;;;;;;;;;;;7.73;100.00;102485.38;4999363;28;20495;-79
2023/03/04 11:15:54;;;;;;;;;;;;;;;7.87;100.00;102490.19;5016332;28;19927;-80
2023/03/04 11:18:25;;;;;;;;;;;;;;;7.77;100.00;102481.66;5001087;28;19986;-80
2023/03/04 11:20:51;;;;;;;;;;;;;;;7.71;100.00;102480.13;4999927;28;19921;-80
2023/03/04 11:23:34;;;;;;;;;;;;;;;7.83;100.00;102470.72;5013661;28;19928;-80
2023/03/04 11:26:11;;;;;;;;;;;;;;;8.02;100.00;102468.19;5021483;28;19949;-80
2023/03/04 11:28:39;;;;;;;;;;;;;;;8.02;100.00;102462.84;5004146;28;19927;-80
2023/03/04 11:31:07;;;;;;;;;;;;;;;8.03;100.00;102455.66;5018672;28;19921;-80
2023/03/04 11:33:43;;;;;;;;;;;;;;;8.01;100.00;102463.78;5005253;28;20015;-80
2023/03/04 11:36:09;;;;;;;;;;;;;;;7.85;100.00;102465.31;5020165;28;19927;-80
2023/03/04 11:38:35;;;;;;;;;;;;;;;7.83;100.00;102457.38;5028639;28;20563;-80
2023/03/04 11:41:03;;;;;;;;;;;;;;;7.94;100.00;102462.28;5002684;28;19932;-80
2023/03/04 11:43:33;;;;;;;;;;;;;;;8.26;100.00;102468.97;5001893;28;19921;-80
2023/03/04 11:46:17;;;;;;;;;;;;;;;8.38;100.00;102453.31;4996930;28;19932;-79
2023/03/04 11:48:53;;;;;;;;;;;;;;;8.14;100.00;102450.75;5017955;28;19928;-80
2023/03/04 11:51:39;;;;;;;;;;;;;;;8.00;100.00;102456.69;5015175;28;20706;-79
2023/03/04 11:54:17;;;;;;;;;;;;;;;8.07;100.00;102451.94;5021982;28;19929;-78
2023/03/04 11:56:52;;;;;;;;;;;;;;;8.36;100.00;102448.03;5026901;28;20171;-80
2023/03/04 11:59:23;;;;;;;;;;;;;;;8.85;100.00;102445.03;5021804;28;19924;-79
2023/03/04 12:01:55;;;;;;;;;;;;;;;9.07;100.00;102440.53;5017733;28;21121;-79
2023/03/04 12:04:39;;;;;;;;;;;;;;;8.93;100.00;102430.44;5010856;28;19987;-80
2023/03/04 12:07:08;;;;;;;;;;;;;;;8.64;100.00;102427.25;5023720;28;20321;-78
2023/03/04 12:09:42;;;;;;;;;;;;;;;8.36;100.00;102439.13;5028155;28;20279;-79
2023/03/04 12:12:23;;;;;;;;;;;;;;;8.38;100.00;102426.56;5022457;28;19933;-79
2023/03/04 12:14:56;;;;;;;;;;;;;;;7.84;100.00;102427.00;5022604;28;20366;-79
2023/03/04 12:17:22;;;;;;;;;;;;;;;7.79;100.00;102418.31;5005657;28;19928;-80
2023/03/04 12:20:06;;;;;;;;;;;;;;;7.60;100.00;102421.72;5019450;28;20303;-79
2023/03/04 12:22:45;;;;;;;;;;;;;;;7.72;100.00;102411.47;5016956;28;19943;-79
2023/03/04 12:25:19;;;;;;;;;;;;;;;7.93;100.00;102413.28;5003233;28;19921;-80
2023/03/04 12:27:52;;;;;;;;;;;;;;;8.09;100.00;102410.81;5022794;28;19921;-79
2023/03/04 12:30:26;;;;;;;;;;;;;;;8.37;100.00;102406.94;5017128;28;19987;-80
2023/03/04 12:33:19;;;;;;;;;;;;;;;8.60;100.00;102407.81;5021954;28;20407;-80
2023/03/04 12:35:44;;;;;;;;;;;;;;;8.65;100.00;102400.41;4992624;28;19925;-80